createdAt,value
2022-11-24T00:02:01.796Z,50.5
2022-11-24T00:07:01.195Z,48.3
2022-11-24T00:12:01.730Z,48.4
2022-11-24T00:17:01.607Z,46.8
2022-11-24T00:22:01.281Z,46.3
2022-11-24T00:27:01.306Z,47.4
2022-11-24T00:32:01.264Z,48.0
2022-11-24T00:37:01.557Z,49.6
2022-11-24T00:42:01.566Z,50.4
2022-11-24T00:47:02.204Z,47.9
2022-11-24T00:52:01.563Z,47.0
2022-11-24T00:57:01.568Z,46.3
2022-11-24T01:02:01.747Z,41.1
2022-11-24T01:07:02.007Z,43.0
2022-11-24T01:12:01.571Z,45.5
2022-11-24T01:17:01.531Z,42.7
2022-11-24T01:22:01.640Z,41.8
2022-11-24T01:27:01.528Z,46.0
2022-11-24T01:32:01.533Z,43.8
2022-11-24T01:37:01.935Z,43.0
2022-11-24T01:42:03.164Z,48.4
2022-11-24T01:47:17.047Z,50.0
2022-11-24T01:52:01.396Z,49.9
2022-11-24T01:57:01.327Z,50.4
2022-11-24T02:02:01.342Z,50.8
2022-11-24T02:08:01.169Z,50.5
2022-11-24T02:13:00.898Z,50.0
2022-11-24T02:18:01.246Z,50.7
2022-11-24T02:23:01.239Z,50.6
2022-11-24T02:28:05.218Z,45.9
2022-11-24T02:33:01.524Z,42.6
2022-11-24T02:38:02.062Z,41.0
2022-11-24T02:43:01.533Z,40.9
2022-11-24T02:48:01.562Z,41.0
2022-11-24T02:53:02.051Z,43.7
2022-11-24T02:58:01.481Z,43.2
2022-11-24T03:03:01.645Z,44.4
2022-11-24T03:08:01.562Z,42.4
2022-11-24T03:13:01.556Z,40.4
2022-11-24T03:18:01.595Z,41.4
2022-11-24T03:23:01.557Z,44.6
2022-11-24T03:33:01.471Z,46.2
2022-11-24T03:38:01.586Z,49.6
2022-11-24T03:43:01.534Z,51.4
2022-11-24T03:48:01.526Z,51.5
2022-11-24T03:53:02.701Z,51.4
2022-11-24T03:58:01.598Z,50.7
2022-11-24T04:03:01.612Z,49.8
2022-11-24T04:08:01.550Z,47.3
2022-11-24T04:13:01.524Z,45.7
2022-11-24T04:18:01.547Z,44.9
2022-11-24T04:23:01.535Z,41.8
2022-11-24T04:28:01.568Z,41.3
2022-11-24T04:33:01.520Z,41.8
2022-11-24T04:38:01.850Z,42.2
2022-11-24T04:43:01.935Z,43.8
2022-11-24T04:48:01.340Z,47.2
2022-11-24T04:53:01.909Z,48.6
2022-11-24T04:58:01.300Z,49.4
2022-11-24T05:03:01.835Z,48.5
2022-11-24T05:08:01.324Z,47.8
2022-11-24T05:13:01.428Z,49.0
2022-11-24T05:18:01.477Z,47.7
2022-11-24T05:28:01.568Z,50.0
2022-11-24T05:33:06.938Z,49.7
2022-11-24T05:38:01.235Z,48.5
2022-11-24T05:43:01.273Z,48.1
2022-11-24T05:48:01.004Z,47.3
2022-11-24T05:53:01.530Z,45.4
2022-11-24T05:58:01.599Z,44.6
2022-11-24T06:03:01.391Z,47.0
2022-11-24T06:08:01.388Z,49.3
2022-11-24T06:13:01.333Z,50.8
2022-11-24T06:18:01.062Z,51.9
2022-11-24T06:23:01.830Z,55.3
2022-11-24T06:28:01.571Z,55.5
2022-11-24T06:33:01.471Z,56.8
2022-11-24T06:38:01.586Z,58.1
2022-11-24T06:43:01.542Z,57.9
2022-11-24T06:48:01.547Z,55.7
2022-11-24T06:53:01.571Z,54.1
2022-11-24T06:58:01.579Z,51.6
2022-11-24T07:25:02.444Z,49.6
2022-11-24T07:30:02.276Z,46.0
2022-11-24T07:35:01.298Z,44.0
2022-11-24T07:40:01.203Z,45.5
2022-11-24T07:45:07.147Z,47.7
2022-11-24T07:50:01.208Z,48.6
2022-11-24T07:55:01.208Z,50.2
2022-11-24T08:00:03.575Z,53.2
2022-11-24T08:05:01.225Z,52.9
2022-11-24T08:10:01.099Z,52.8
2022-11-24T08:15:11.839Z,53.6
2022-11-24T08:20:01.233Z,53.8
2022-11-24T08:25:01.220Z,51.2
2022-11-24T08:30:01.315Z,48.4
2022-11-24T08:35:15.223Z,47.8
2022-11-24T08:40:01.211Z,46.4
2022-11-24T08:45:20.734Z,46.2
2022-11-24T08:50:01.297Z,48.9
2022-11-24T08:55:01.252Z,51.4
2022-11-24T09:00:02.920Z,52.6
2022-11-24T09:05:01.263Z,56.0
2022-11-24T09:10:01.627Z,54.6
2022-11-24T09:15:01.878Z,55.1
2022-11-24T09:20:02.271Z,57.6
2022-11-24T09:25:01.309Z,57.0
2022-11-24T09:30:02.285Z,53.0
2022-11-24T09:35:01.202Z,55.2
2022-11-24T09:40:01.201Z,54.4
2022-11-24T09:45:22.816Z,56.5
2022-11-24T09:50:01.229Z,55.9
2022-11-24T09:55:01.252Z,56.2
2022-11-24T10:00:10.441Z,55.8
2022-11-24T10:10:01.775Z,52.8
2022-11-24T10:15:15.870Z,58.1
2022-11-24T10:20:01.041Z,62.0
2022-11-24T10:25:00.999Z,66.0
2022-11-24T10:30:01.737Z,65.6
2022-11-24T10:35:01.141Z,66.2
2022-11-24T10:40:01.020Z,61.6
2022-11-24T10:45:09.294Z,59.0
2022-11-24T10:50:01.010Z,56.1
2022-11-24T10:55:01.007Z,57.3
2022-11-24T11:00:03.500Z,58.2
2022-11-24T11:05:01.113Z,57.6
2022-11-24T11:10:00.771Z,59.6
2022-11-24T11:15:16.442Z,59.8
2022-11-24T11:20:02.432Z,59.3
2022-11-24T11:25:00.825Z,59.2
2022-11-24T11:55:13.466Z,54.6
2022-11-24T12:00:06.819Z,54.2
2022-11-24T12:05:02.039Z,52.1
2022-11-24T12:10:02.342Z,51.6
2022-11-24T12:15:26.913Z,52.8
2022-11-24T12:20:01.554Z,53.6
2022-11-24T12:25:01.629Z,54.0
2022-11-24T12:31:01.598Z,54.7
2022-11-24T12:36:01.511Z,55.1
2022-11-24T12:41:18.583Z,54.4
2022-11-24T12:46:01.470Z,53.8
2022-11-24T12:51:02.785Z,54.4
2022-11-24T12:56:01.557Z,55.2
2022-11-24T13:01:17.192Z,55.6
2022-11-24T13:06:17.031Z,56.7
2022-11-24T13:12:13.481Z,56.6
2022-11-24T13:17:36.288Z,58.8
2022-11-24T13:22:01.535Z,61.6
2022-11-24T13:27:01.520Z,66.1
2022-11-24T13:32:01.528Z,68.7
2022-11-24T13:37:26.924Z,69.1
2022-11-24T13:42:01.547Z,68.9
2022-11-24T13:47:05.528Z,69.3
2022-11-24T13:52:01.460Z,68.8
2022-11-24T13:57:01.503Z,69.5
2022-11-24T14:02:01.619Z,72.6
2022-11-24T14:07:07.255Z,71.8
2022-11-24T14:12:01.412Z,70.5
2022-11-24T14:17:01.199Z,68.7
2022-11-24T14:22:01.563Z,65.4
2022-11-24T14:27:01.520Z,63.4
2022-11-24T14:32:01.515Z,62.1
2022-11-24T14:37:01.529Z,62.9
2022-11-24T14:42:01.523Z,66.6
2022-11-24T14:47:01.594Z,69.4
2022-11-24T14:52:01.545Z,71.6
2022-11-24T14:57:01.506Z,73.4
2022-11-24T15:02:01.552Z,73.5
2022-11-24T15:07:01.447Z,67.2
2022-11-24T15:12:01.276Z,65.1
2022-11-24T15:17:01.346Z,63.9
2022-11-24T15:22:01.867Z,64.6
2022-11-24T15:27:01.304Z,64.7
2022-11-24T15:32:01.340Z,70.3
2022-11-24T15:37:01.325Z,72.4
2022-11-24T15:42:01.614Z,72.5
2022-11-24T15:47:01.302Z,75.6
2022-11-24T15:52:01.276Z,79.2
2022-11-24T15:57:01.178Z,76.9
2022-11-24T16:02:01.913Z,73.9
2022-11-24T16:07:01.226Z,74.2
2022-11-24T16:12:01.555Z,73.8
2022-11-24T16:17:01.556Z,72.9
2022-11-24T16:22:01.554Z,73.5
2022-11-24T16:27:01.561Z,76.9
2022-11-24T16:32:01.631Z,79.7
2022-11-24T16:37:01.634Z,77.8
2022-11-24T16:42:01.568Z,75.8
2022-11-24T16:47:01.559Z,74.7
2022-11-24T16:52:01.549Z,74.2
2022-11-24T16:57:02.173Z,70.9
2022-11-24T17:02:01.650Z,70.4
2022-11-24T17:07:01.586Z,70.8
2022-11-24T17:12:01.533Z,72.9
2022-11-24T17:17:01.596Z,73.8
2022-11-24T17:22:01.580Z,75.2
2022-11-24T17:27:01.600Z,73.9
2022-11-24T17:32:01.619Z,72.5
2022-11-24T17:37:01.570Z,69.9
2022-11-24T17:42:01.570Z,67.4
2022-11-24T17:47:01.562Z,66.7
2022-11-24T17:52:01.548Z,67.7
2022-11-24T17:57:01.555Z,68.8
2022-11-24T18:02:01.582Z,70.2
2022-11-24T18:07:01.526Z,71.4
2022-11-24T18:12:01.556Z,71.1
2022-11-24T18:17:01.861Z,71.0
2022-11-24T18:22:01.534Z,72.0
2022-11-24T18:27:01.523Z,74.4
2022-11-24T18:32:01.604Z,74.2
2022-11-24T18:37:06.622Z,77.7
2022-11-24T18:42:01.514Z,80.8
2022-11-24T18:47:01.515Z,82.8
2022-11-24T18:52:01.512Z,85.5
2022-11-24T18:57:03.426Z,89.9
2022-11-24T19:02:01.570Z,91.8
2022-11-24T19:07:01.699Z,94.6
2022-11-24T19:12:01.812Z,93.9
2022-11-24T19:17:01.577Z,91.5
2022-11-24T19:22:01.717Z,91.6
2022-11-24T19:27:01.522Z,88.4
2022-11-24T19:32:01.568Z,76.8
2022-11-24T19:37:01.561Z,77.5
2022-11-24T19:42:01.519Z,79.8
2022-11-24T19:47:01.589Z,78.4
2022-11-24T19:52:01.533Z,78.9
2022-11-24T19:58:01.544Z,85.0
2022-11-24T20:03:01.538Z,81.4
2022-11-24T20:08:01.517Z,74.2
2022-11-24T20:13:01.508Z,70.2
2022-11-24T20:18:01.560Z,66.1
2022-11-24T20:23:01.516Z,66.0
2022-11-24T20:28:01.504Z,68.7
2022-11-24T20:33:01.488Z,72.7
2022-11-24T20:38:01.520Z,74.9
2022-11-24T20:43:01.818Z,76.4
2022-11-24T20:48:01.344Z,76.2
2022-11-24T20:53:01.325Z,71.6
2022-11-24T20:58:01.353Z,68.2
2022-11-24T21:03:01.314Z,66.0
2022-11-24T21:08:01.277Z,60.0
2022-11-24T21:13:01.260Z,56.6
2022-11-24T21:18:01.276Z,54.4
2022-11-24T21:23:02.068Z,51.3
2022-11-24T21:28:01.225Z,48.4
2022-11-24T21:33:01.217Z,49.5
2022-11-24T21:38:00.922Z,48.5
2022-11-24T21:43:01.536Z,48.0
2022-11-24T21:48:01.538Z,47.1
2022-11-24T21:53:03.557Z,42.9
2022-11-24T21:58:01.583Z,42.5
2022-11-24T22:03:02.100Z,40.2
2022-11-24T22:08:01.595Z,38.8
2022-11-24T22:13:01.582Z,37.2
2022-11-24T22:18:01.635Z,40.6
2022-11-24T22:23:01.558Z,39.8
2022-11-24T22:28:02.235Z,41.3
2022-11-24T22:33:01.551Z,41.1
2022-11-24T22:39:01.572Z,41.2
2022-11-24T22:44:02.251Z,37.9
2022-11-24T22:49:01.562Z,38.0
2022-11-24T22:54:01.543Z,35.8
2022-11-24T22:59:02.094Z,33.8
2022-11-24T23:04:01.673Z,32.2
2022-11-24T23:09:01.563Z,31.1
2022-11-24T23:14:01.540Z,29.2
2022-11-24T23:19:01.555Z,28.0
2022-11-24T23:24:02.067Z,27.8
2022-11-24T23:29:01.546Z,26.2
2022-11-24T23:34:01.523Z,25.8
2022-11-24T23:39:01.540Z,24.3
2022-11-24T23:44:01.673Z,22.6
2022-11-24T23:49:01.513Z,21.8
2022-11-24T23:54:01.510Z,22.0
2022-11-24T23:59:01.571Z,21.2
